Time;durP1;ratioP1;P1;durP2;ratioP2;P2;SDS_P1;SDS_P2;PMS_P1;PMS_P2;Temp;Humidity;BMP_temperature;BMP_pressure;BME280_temperature;BME280_humidity;BME280_pressure;Samples;Min_cycle;Max_cycle;Signal;HPM_P1;HPM_P2
2024/01/07 00:00:58;;;;;;;2.35;2.13;;;;;;;18.05;54.73;101876.94;5042158;28;20373;-37
2024/01/07 00:03:24;;;;;;;2.70;2.10;;;;;;;18.03;54.63;101877.22;5040315;28;20071;-38
2024/01/07 00:05:49;;;;;;;2.30;2.10;;;;;;;18.00;54.74;101876.88;5040070;28;20476;-38
2024/01/07 00:08:14;;;;;;;2.35;2.15;;;;;;;17.98;54.81;101890.00;5043258;28;20024;-38
2024/01/07 00:10:40;;;;;;;4.90;2.50;;;;;;;17.97;54.69;101886.44;5041752;28;20072;-38
2024/01/07 00:13:05;;;;;;;2.42;2.22;;;;;;;17.93;54.93;101896.22;5043304;28;20033;-38
2024/01/07 00:15:31;;;;;;;2.70;2.40;;;;;;;17.92;54.92;101891.81;5038100;28;20437;-38
2024/01/07 00:17:56;;;;;;;3.90;2.47;;;;;;;17.90;54.88;101896.72;5044012;28;20358;-38
2024/01/07 00:20:22;;;;;;;5.05;2.42;;;;;;;17.87;54.85;101891.75;5039216;28;20021;-38
2024/01/07 00:22:47;;;;;;;3.28;2.20;;;;;;;17.87;55.15;101905.47;5043802;28;20037;-37
2024/01/07 00:25:13;;;;;;;2.53;2.20;;;;;;;17.84;55.17;101903.22;5043416;28;20155;-38
2024/01/07 00:27:38;;;;;;;2.63;2.15;;;;;;;17.83;54.96;101905.13;5039897;28;20469;-37
2024/01/07 00:30:04;;;;;;;2.13;1.92;;;;;;;17.81;55.09;101896.31;5042172;28;20116;-37
2024/01/07 00:32:29;;;;;;;4.30;2.55;;;;;;;17.79;55.13;101903.94;5041638;28;20089;-37
2024/01/07 00:34:55;;;;;;;3.08;2.47;;;;;;;17.76;55.00;101898.97;5037960;28;20033;-38
2024/01/07 00:37:20;;;;;;;3.08;2.22;;;;;;;17.74;55.08;101907.47;5042939;28;20428;-38
2024/01/07 00:39:45;;;;;;;3.08;2.35;;;;;;;17.74;55.15;101910.22;5042364;28;20036;-37
2024/01/07 00:42:11;;;;;;;4.15;2.17;;;;;;;17.72;54.88;101909.63;5041547;28;20029;-37
2024/01/07 00:44:37;;;;;;;3.30;2.40;;;;;;;17.70;54.91;101913.69;5040880;28;20519;-37
2024/01/07 00:47:03;;;;;;;2.53;2.28;;;;;;;17.68;55.05;101908.44;5042458;28;20055;-38
2024/01/07 00:49:28;;;;;;;2.28;1.98;;;;;;;17.68;55.01;101918.59;5041232;28;20679;-38
2024/01/07 00:51:53;;;;;;;2.67;2.15;;;;;;;17.67;55.01;101912.28;5040974;28;20028;-38
2024/01/07 00:54:19;;;;;;;2.88;2.20;;;;;;;17.65;55.19;101908.94;5038648;28;20024;-38
2024/01/07 00:56:45;;;;;;;2.88;2.40;;;;;;;17.64;54.96;101912.75;5041679;28;20036;-38
2024/01/07 00:59:11;;;;;;;2.70;2.13;;;;;;;17.62;55.11;101913.00;5055504;28;20036;-37
2024/01/07 01:01:36;;;;;;;2.75;2.20;;;;;;;17.61;54.95;101919.56;5040219;28;20033;-37
2024/01/07 01:04:01;;;;;;;2.55;2.20;;;;;;;17.60;55.07;101914.34;5042235;28;20078;-37
2024/01/07 01:06:27;;;;;;;2.83;2.25;;;;;;;17.58;55.19;101913.75;5039614;28;20457;-37
2024/01/07 01:08:52;;;;;;;2.20;2.00;;;;;;;17.57;55.03;101915.69;5042343;28;20037;-36
2024/01/07 01:11:18;;;;;;;3.55;2.40;;;;;;;17.57;55.00;101920.31;5041826;28;20021;-37
2024/01/07 01:13:43;;;;;;;2.97;2.28;;;;;;;17.55;54.92;101925.22;5039843;28;20033;-36
2024/01/07 01:16:08;;;;;;;2.42;2.00;;;;;;;17.52;55.04;101923.78;5042555;28;20056;-37
2024/01/07 01:18:34;;;;;;;2.45;2.20;;;;;;;17.52;55.12;101922.97;5023577;28;20024;-37
2024/01/07 01:20:59;;;;;;;3.08;2.33;;;;;;;17.49;55.35;101927.84;5039678;28;20040;-37
2024/01/07 01:23:24;;;;;;;3.65;2.20;;;;;;;17.47;54.99;101929.19;5040465;28;20029;-38
2024/01/07 01:25:50;;;;;;;2.22;2.00;;;;;;;17.48;55.13;101936.34;5039538;28;20021;-37
2024/01/07 01:28:15;;;;;;;2.20;2.00;;;;;;;17.45;55.17;101928.63;5042193;28;20443;-37
2024/01/07 01:30:41;;;;;;;2.40;2.20;;;;;;;17.45;55.15;101931.38;5037266;28;20533;-37
2024/01/07 01:33:06;;;;;;;2.38;2.00;;;;;;;17.43;55.02;101934.31;5040878;28;20148;-37
2024/01/07 01:35:32;;;;;;;3.08;2.17;;;;;;;17.42;54.96;101940.88;5041102;28;20033;-37
2024/01/07 01:37:57;;;;;;;2.47;2.28;;;;;;;17.41;55.13;101938.41;5042424;28;20096;-37
2024/01/07 01:40:22;;;;;;;4.35;2.17;;;;;;;17.41;54.89;101943.88;5040379;28;20630;-37
2024/01/07 01:42:48;;;;;;;2.38;2.10;;;;;;;17.39;55.16;101944.13;5040536;28;20041;-37
2024/01/07 01:45:14;;;;;;;2.65;2.30;;;;;;;17.37;54.97;101942.72;5038574;28;20288;-37
2024/01/07 01:47:40;;;;;;;2.20;2.00;;;;;;;17.35;54.96;101942.13;5040808;28;20533;-37
2024/01/07 01:50:06;;;;;;;1.90;1.80;;;;;;;17.34;54.99;101957.75;5040587;28;20436;-36
2024/01/07 01:52:31;;;;;;;2.30;2.10;;;;;;;17.32;55.18;101963.44;5041612;28;20036;-36
2024/01/07 01:54:57;;;;;;;4.68;2.25;;;;;;;17.32;54.88;101946.19;5041959;28;20382;-37
2024/01/07 01:57:24;;;;;;;2.75;2.20;;;;;;;17.31;55.08;101969.19;5043225;28;20032;-37
2024/01/07 01:59:50;;;;;;;2.30;2.10;;;;;;;17.28;54.91;101965.03;5071005;28;20040;-36
2024/01/07 02:02:15;;;;;;;2.50;2.30;;;;;;;17.29;54.93;101966.69;5040690;28;20045;-37
2024/01/07 02:04:41;;;;;;;2.75;2.08;;;;;;;17.26;55.21;101967.16;5039477;28;20025;-37
2024/01/07 02:07:06;;;;;;;2.65;2.20;;;;;;;17.27;55.05;101965.28;5044974;28;20029;-37
2024/01/07 02:09:31;;;;;;;2.10;1.90;;;;;;;17.25;55.03;101954.56;5045709;28;20033;-37
2024/01/07 02:12:01;;;;;;;2.40;2.20;;;;;;;17.25;54.98;101970.16;5045487;28;20439;-37
2024/01/07 02:14:27;;;;;;;3.92;2.30;;;;;;;17.24;55.04;101971.22;5043926;28;20020;-37
2024/01/07 02:16:52;;;;;;;2.30;2.08;;;;;;;17.21;55.04;101974.47;5044963;28;20402;-37
2024/01/07 02:19:18;;;;;;;2.30;2.10;;;;;;;17.21;55.09;101969.00;5045141;28;20032;-38
2024/01/07 02:21:44;;;;;;;2.40;2.17;;;;;;;17.20;55.11;101978.28;5060836;28;20332;-37
2024/01/07 02:24:15;;;;;;;2.47;2.17;;;;;;;17.18;55.05;101984.00;5042860;28;20056;-37
2024/01/07 02:26:41;;;;;;;2.83;2.17;;;;;;;17.16;55.05;101986.16;5025612;28;20021;-36
2024/01/07 02:29:06;;;;;;;2.15;1.90;;;;;;;17.14;54.87;101980.09;5047643;28;20029;-37
2024/01/07 02:31:31;;;;;;;2.55;2.03;;;;;;;17.13;54.91;101984.75;5050200;28;20051;-37
2024/01/07 02:33:57;;;;;;;3.80;2.13;;;;;;;17.13;55.10;101986.63;5060885;28;20037;-37
2024/01/07 02:36:22;;;;;;;3.45;2.30;;;;;;;17.13;54.96;101983.88;5043404;28;20068;-36
2024/01/07 02:38:47;;;;;;;2.95;2.03;;;;;;;17.13;54.87;101989.38;5043283;28;20087;-36
2024/01/07 02:41:13;;;;;;;2.67;2.28;;;;;;;17.11;54.84;101995.09;5041304;28;20032;-37
2024/01/07 02:43:38;;;;;;;2.10;1.90;;;;;;;17.10;54.91;101984.41;5073474;28;20196;-37
2024/01/07 02:46:04;;;;;;;2.22;2.00;;;;;;;17.10;55.10;101987.94;5046076;28;20387;-37
2024/01/07 02:48:29;;;;;;;2.30;2.10;;;;;;;17.09;55.01;101996.41;5044034;28;20036;-37
2024/01/07 02:50:55;;;;;;;2.38;2.00;;;;;;;17.08;54.96;101997.50;5047539;28;20032;-37
2024/01/07 02:53:21;;;;;;;3.17;2.20;;;;;;;17.05;55.04;101992.50;5044685;28;20025;-37
2024/01/07 02:55:46;;;;;;;2.50;2.10;;;;;;;17.06;54.89;102005.97;5042717;28;20024;-37
2024/01/07 02:58:11;;;;;;;2.58;2.10;;;;;;;17.04;55.08;101997.13;5041946;28;20389;-37
2024/01/07 03:00:37;;;;;;;2.65;2.10;;;;;;;17.03;55.00;101995.47;5044909;28;20033;-37
2024/01/07 03:03:02;;;;;;;2.50;2.00;;;;;;;17.02;55.01;101995.72;5044154;28;20147;-37
2024/01/07 03:05:32;;;;;;;1.88;1.75;;;;;;;17.03;54.97;101994.66;5048806;28;20021;-37
2024/01/07 03:07:57;;;;;;;2.28;2.08;;;;;;;17.01;54.92;102011.34;5042199;28;20029;-37
2024/01/07 03:10:23;;;;;;;2.72;2.15;;;;;;;17.01;55.01;102016.81;5043779;28;20024;-38
2024/01/07 03:12:48;;;;;;;2.25;1.80;;;;;;;17.00;54.93;102012.41;5043898;28;20273;-37
2024/01/07 03:15:14;;;;;;;2.70;2.10;;;;;;;17.00;54.94;102023.34;5044309;28;20078;-37
2024/01/07 03:17:39;;;;;;;2.55;2.20;;;;;;;16.99;55.14;102022.53;5041929;28;20110;-37
2024/01/07 03:20:05;;;;;;;2.20;1.88;;;;;;;16.97;55.20;102019.19;5042530;28;20078;-37
2024/01/07 03:22:30;;;;;;;2.40;2.13;;;;;;;16.99;54.98;102024.44;5037959;28;20397;-37
2024/01/07 03:24:56;;;;;;;2.42;2.15;;;;;;;16.98;55.19;102028.25;5043316;28;20036;-36
2024/01/07 03:27:21;;;;;;;3.80;2.10;;;;;;;16.98;55.17;102025.50;5044038;28;20024;-36
2024/01/07 03:29:46;;;;;;;2.88;2.10;;;;;;;16.97;55.14;102030.16;5041379;28;20236;-37
2024/01/07 03:32:12;;;;;;;2.30;2.00;;;;;;;16.97;54.96;102038.38;5042997;28;20009;-37
2024/01/07 03:34:39;;;;;;;2.17;2.00;;;;;;;16.95;54.89;102032.28;5043809;28;20532;-37
2024/01/07 03:37:05;;;;;;;2.35;2.05;;;;;;;16.96;55.03;102038.63;5044056;28;20062;-37
2024/01/07 03:39:33;;;;;;;2.22;2.00;;;;;;;16.94;54.79;102038.84;5041678;28;20344;-38
2024/01/07 03:41:58;;;;;;;2.20;2.00;;;;;;;16.94;54.79;102046.22;5041865;28;20440;-37
2024/01/07 03:44:23;;;;;;;3.35;2.30;;;;;;;16.93;54.71;102050.03;5047157;28;20103;-37
2024/01/07 03:46:49;;;;;;;2.65;2.00;;;;;;;16.91;54.83;102046.66;5047354;28;20541;-37
2024/01/07 03:49:14;;;;;;;2.20;2.00;;;;;;;16.91;54.91;102055.72;5076701;28;20480;-36
2024/01/07 03:51:39;;;;;;;1.95;1.75;;;;;;;16.91;55.36;102052.16;5043024;28;20040;-37
2024/01/07 03:54:05;;;;;;;2.83;2.20;;;;;;;16.89;54.94;102057.88;5043543;28;20149;-38
2024/01/07 03:56:30;;;;;;;2.75;2.10;;;;;;;16.90;54.76;102066.94;5038969;28;20127;-38
2024/01/07 03:58:56;;;;;;;2.05;1.88;;;;;;;16.88;54.71;102072.63;5044742;28;20450;-39
2024/01/07 04:01:21;;;;;;;4.05;2.00;;;;;;;16.88;54.72;102072.63;5042409;28;20533;-37
2024/01/07 04:03:47;;;;;;;3.78;2.22;;;;;;;16.86;54.72;102077.53;5040393;28;20028;-37
2024/01/07 04:06:12;;;;;;;2.35;2.15;;;;;;;16.86;54.84;102080.28;5041680;28;20108;-37
2024/01/07 04:08:37;;;;;;;2.38;1.98;;;;;;;16.86;54.58;102077.53;5043389;28;20039;-36
2024/01/07 04:11:03;;;;;;;2.35;2.15;;;;;;;16.85;54.64;102089.56;5041924;28;20141;-37
2024/01/07 04:13:28;;;;;;;2.25;2.05;;;;;;;16.84;54.64;102079.66;5044845;28;20029;-36
2024/01/07 04:15:54;;;;;;;2.00;1.80;;;;;;;16.84;54.66;102085.16;5039449;28;20028;-37
2024/01/07 04:18:19;;;;;;;2.45;2.05;;;;;;;16.82;54.73;102081.81;5043261;28;20115;-37
2024/01/07 04:20:45;;;;;;;2.53;2.20;;;;;;;16.82;54.63;102087.28;5043982;28;20037;-39
2024/01/07 04:23:10;;;;;;;2.25;2.00;;;;;;;16.83;54.63;102091.69;5040645;28;20025;-39
2024/01/07 04:25:35;;;;;;;2.78;2.17;;;;;;;16.85;54.65;102090.38;5042130;28;20048;-38
2024/01/07 04:28:01;;;;;;;2.53;1.92;;;;;;;16.91;54.66;102095.97;5043534;28;20078;-38
2024/01/07 04:30:26;;;;;;;2.08;1.98;;;;;;;16.98;54.58;102099.44;5041405;28;20498;-36
2024/01/07 04:32:52;;;;;;;2.28;2.08;;;;;;;17.05;54.48;102100.16;5040885;28;20032;-39
2024/01/07 04:35:17;;;;;;;5.20;1.90;;;;;;;17.14;54.50;102100.63;5042068;28;20116;-37
2024/01/07 04:37:42;;;;;;;3.35;2.22;;;;;;;17.22;54.38;102102.19;5042985;28;20261;-37
2024/01/07 04:40:08;;;;;;;1.98;1.85;;;;;;;17.30;54.45;102112.75;5040140;28;20024;-37
2024/01/07 04:42:34;;;;;;;2.40;1.92;;;;;;;17.39;54.40;102114.03;5041753;28;20572;-37
2024/01/07 04:45:00;;;;;;;2.10;1.90;;;;;;;17.47;54.37;102115.56;5038236;28;20438;-37
2024/01/07 04:47:30;;;;;;;2.55;2.28;;;;;;;17.53;54.25;102109.09;5026500;28;20028;-37
2024/01/07 04:49:56;;;;;;;2.40;2.20;;;;;;;17.62;54.21;102121.38;5039912;28;20053;-36
2024/01/07 04:52:22;;;;;;;2.50;2.30;;;;;;;17.71;54.16;102115.50;5041879;28;20025;-37
2024/01/07 04:54:50;;;;;;;2.78;2.40;;;;;;;17.80;53.83;102116.78;5039893;28;20091;-38
2024/01/07 04:57:15;;;;;;;2.38;2.17;;;;;;;17.89;54.03;102122.69;5044222;28;20383;-38
2024/01/07 04:59:40;;;;;;;2.20;2.00;;;;;;;17.98;53.93;102120.41;5041440;28;20036;-38
2024/01/07 05:02:06;;;;;;;2.70;2.17;;;;;;;18.06;53.62;102134.59;5038530;28;20052;-38
2024/01/07 05:04:32;;;;;;;2.40;2.17;;;;;;;18.15;53.59;102128.69;5039637;28;20024;-37
2024/01/07 05:06:57;;;;;;;2.50;2.30;;;;;;;18.23;53.49;102137.38;5040151;28;20036;-37
2024/01/07 05:09:22;;;;;;;2.50;2.28;;;;;;;18.31;53.35;102140.75;5038502;28;20516;-38
2024/01/07 05:11:48;;;;;;;2.22;2.03;;;;;;;18.39;53.63;102148.59;5046219;28;20035;-38
2024/01/07 05:14:13;;;;;;;2.95;2.13;;;;;;;18.46;53.31;102142.97;5040261;28;20021;-38
2024/01/07 05:16:39;;;;;;;2.53;2.33;;;;;;;18.52;53.17;102145.53;5041030;28;20068;-38
2024/01/07 05:19:05;;;;;;;2.35;2.15;;;;;;;18.59;53.07;102148.94;5041504;28;20037;-39
2024/01/07 05:21:30;;;;;;;2.63;1.98;;;;;;;18.67;52.87;102146.88;5040981;28;20363;-38
2024/01/07 05:23:55;;;;;;;2.45;2.15;;;;;;;18.74;52.96;102144.81;5040069;28;20032;-38
2024/01/07 05:26:22;;;;;;;2.63;2.40;;;;;;;18.80;52.64;102162.16;5041123;28;20033;-38
2024/01/07 05:28:47;;;;;;;2.58;2.17;;;;;;;18.84;52.52;102158.69;5038547;28;20104;-38
2024/01/07 05:31:19;;;;;;;2.30;2.10;;;;;;;18.90;52.57;102162.34;5043036;28;20584;-38
2024/01/07 05:33:45;;;;;;;3.75;2.47;;;;;;;18.94;52.56;102157.22;5041206;28;20040;-38
2024/01/07 05:36:11;;;;;;;2.83;2.22;;;;;;;19.00;52.46;102167.19;5039456;28;20051;-37
2024/01/07 05:38:37;;;;;;;2.53;2.30;;;;;;;19.04;52.22;102169.19;5039503;28;20029;-37
2024/01/07 05:41:02;;;;;;;2.63;2.35;;;;;;;19.08;52.36;102169.53;5041734;28;20367;-37
2024/01/07 05:43:28;;;;;;;2.38;2.10;;;;;;;19.12;51.97;102173.44;5045288;28;20416;-38
2024/01/07 05:45:53;;;;;;;2.55;2.15;;;;;;;19.16;51.87;102180.06;5043264;28;20151;-38
2024/01/07 05:48:21;;;;;;;2.50;2.30;;;;;;;19.20;52.51;102185.91;5045169;28;20064;-38
2024/01/07 05:50:46;;;;;;;3.88;2.58;;;;;;;19.22;52.14;102187.31;5050727;28;20032;-38
2024/01/07 05:53:12;;;;;;;3.20;2.08;;;;;;;19.26;51.78;102186.81;5048835;28;20456;-38
2024/01/07 05:55:37;;;;;;;2.40;2.20;;;;;;;19.29;51.84;102194.53;5052936;28;20025;-38
2024/01/07 05:58:03;;;;;;;2.50;2.30;;;;;;;19.32;51.69;102186.63;5044208;28;20671;-38
2024/01/07 06:00:28;;;;;;;2.33;2.10;;;;;;;19.35;51.65;102196.28;5044302;28;20060;-38
2024/01/07 06:02:54;;;;;;;2.72;2.25;;;;;;;19.38;52.00;102190.28;5051278;28;20044;-38
2024/01/07 06:05:19;;;;;;;2.55;2.05;;;;;;;19.40;51.39;102191.69;5045263;28;20429;-38
2024/01/07 06:07:44;;;;;;;2.45;2.17;;;;;;;19.43;51.81;102195.84;5044511;28;20060;-38
2024/01/07 06:10:10;;;;;;;3.25;2.63;;;;;;;19.47;51.64;102209.91;5043932;28;20086;-38
2024/01/07 06:12:35;;;;;;;2.50;2.30;;;;;;;19.49;51.54;102216.81;5043024;28;20022;-37
2024/01/07 06:15:00;;;;;;;2.35;2.15;;;;;;;19.51;51.56;102217.41;5045139;28;20380;-38
2024/01/07 06:17:26;;;;;;;2.45;2.25;;;;;;;19.53;51.49;102220.75;5042963;28;20036;-38
2024/01/07 06:19:51;;;;;;;2.60;2.40;;;;;;;19.56;51.51;102216.66;5045065;28;20033;-38
2024/01/07 06:22:17;;;;;;;2.55;2.20;;;;;;;19.58;51.25;102230.97;5044743;28;20565;-38
2024/01/07 06:24:42;;;;;;;2.42;2.20;;;;;;;19.58;51.39;102219.16;5042931;28;20332;-38
2024/01/07 06:27:07;;;;;;;2.40;2.20;;;;;;;19.59;51.53;102221.63;5043064;28;20042;-37
2024/01/07 06:29:33;;;;;;;5.30;2.70;;;;;;;19.60;51.53;102223.31;5043324;28;20032;-38
2024/01/07 06:31:59;;;;;;;3.15;2.25;;;;;;;19.60;51.35;102237.06;5052050;28;20143;-37
2024/01/07 06:34:24;;;;;;;2.85;2.53;;;;;;;19.61;50.99;102235.97;5045914;28;20462;-36
2024/01/07 06:36:49;;;;;;;3.53;2.13;;;;;;;19.60;51.04;102242.56;5051792;28;20033;-38
2024/01/07 06:39:15;;;;;;;3.05;2.50;;;;;;;19.58;51.05;102250.22;5045176;28;20440;-38
2024/01/07 06:41:40;;;;;;;3.20;2.38;;;;;;;19.54;50.96;102249.88;5043880;28;20087;-38
2024/01/07 06:44:05;;;;;;;2.40;2.20;;;;;;;19.53;51.18;102248.25;5045027;28;20112;-38
2024/01/07 06:46:31;;;;;;;3.40;2.25;;;;;;;19.50;50.92;102246.00;5044537;28;20044;-37
2024/01/07 06:48:56;;;;;;;3.03;2.40;;;;;;;19.49;50.87;102260.81;5044520;28;20025;-37
2024/01/07 06:51:22;;;;;;;3.42;2.42;;;;;;;19.47;51.15;102270.41;5042859;28;20121;-38
2024/01/07 06:53:47;;;;;;;2.60;2.40;;;;;;;19.44;51.02;102269.00;5043427;28;20501;-38
2024/01/07 06:56:13;;;;;;;2.58;2.38;;;;;;;19.41;50.79;102269.47;5043004;28;20087;-38
2024/01/07 06:58:38;;;;;;;2.90;2.50;;;;;;;19.38;51.01;102270.81;5028715;28;20040;-37
2024/01/07 07:01:06;;;;;;;3.63;2.50;;;;;;;19.36;50.90;102281.25;5041804;28;20043;-37
2024/01/07 07:03:32;;;;;;;4.43;2.70;;;;;;;19.33;50.92;102284.50;5049698;28;20042;-38
2024/01/07 07:05:57;;;;;;;3.05;2.45;;;;;;;19.29;50.95;102299.84;5042280;28;20029;-37
2024/01/07 07:08:22;;;;;;;2.90;2.40;;;;;;;19.26;51.10;102296.75;5044476;28;20028;-38
2024/01/07 07:10:48;;;;;;;3.03;2.70;;;;;;;19.21;51.23;102298.34;5043200;28;20484;-37
2024/01/07 07:13:14;;;;;;;3.40;2.60;;;;;;;19.19;51.14;102314.25;5045340;28;20029;-37
2024/01/07 07:15:40;;;;;;;3.03;2.40;;;;;;;19.14;51.38;102305.94;5043007;28;20029;-37
2024/01/07 07:18:05;;;;;;;3.17;2.50;;;;;;;19.11;51.08;102309.16;5046320;28;20414;-36
2024/01/07 07:20:30;;;;;;;2.80;2.42;;;;;;;19.06;51.24;102317.31;5041482;28;20029;-37
2024/01/07 07:22:56;;;;;;;3.08;2.60;;;;;;;19.02;51.07;102316.16;5042282;28;20399;-37
2024/01/07 07:25:21;;;;;;;3.47;2.65;;;;;;;18.98;50.99;102320.47;5043964;28;20032;-37
2024/01/07 07:27:47;;;;;;;3.90;2.30;;;;;;;18.92;51.14;102320.38;5044048;28;20021;-37
2024/01/07 07:30:12;;;;;;;2.88;2.40;;;;;;;18.90;51.32;102329.94;5043458;28;20119;-36
2024/01/07 07:32:44;;;;;;;3.17;2.55;;;;;;;18.86;51.08;102320.50;5042967;28;20028;-36
2024/01/07 07:35:09;;;;;;;3.40;2.63;;;;;;;18.82;51.18;102331.16;5040597;28;20040;-36
2024/01/07 07:37:35;;;;;;;3.17;2.40;;;;;;;18.79;51.24;102339.06;5044196;28;20029;-37
2024/01/07 07:40:00;;;;;;;2.95;2.63;;;;;;;18.75;51.44;102345.03;5042488;28;20117;-37
2024/01/07 07:42:26;;;;;;;3.22;2.40;;;;;;;18.70;51.24;102346.84;5043802;28;20025;-37
2024/01/07 07:44:51;;;;;;;3.40;2.60;;;;;;;18.67;51.20;102347.34;5041815;28;20049;-36
2024/01/07 07:47:16;;;;;;;3.17;2.50;;;;;;;18.63;51.28;102363.47;5043689;28;20021;-36
2024/01/07 07:49:42;;;;;;;3.03;2.60;;;;;;;18.60;51.04;102363.94;5044893;28;20059;-41
2024/01/07 07:52:08;;;;;;;3.33;2.63;;;;;;;18.57;51.13;102365.28;5075492;28;20029;-36
2024/01/07 07:54:34;;;;;;;4.40;2.90;;;;;;;18.54;50.85;102364.94;5043007;28;21158;-37
2024/01/07 07:56:59;;;;;;;3.35;2.50;;;;;;;18.52;51.17;102364.34;5043581;28;20035;-37
2024/01/07 07:59:24;;;;;;;3.47;2.60;;;;;;;18.49;51.29;102365.69;5040018;28;20140;-37
2024/01/07 08:01:50;;;;;;;2.40;2.20;;;;;;;18.49;51.19;102379.41;5042553;28;20535;-36
2024/01/07 08:04:15;;;;;;;3.55;2.55;;;;;;;18.50;51.08;102369.25;5041771;28;20033;-37
2024/01/07 08:06:42;;;;;;;3.35;2.90;;;;;;;18.50;51.25;102377.47;5043086;28;20025;-36
2024/01/07 08:09:08;;;;;;;4.75;2.72;;;;;;;18.49;51.07;102373.91;5041133;28;20032;-36
2024/01/07 08:11:33;;;;;;;2.78;2.40;;;;;;;18.51;51.12;102377.22;5042437;28;20074;-37
2024/01/07 08:14:01;;;;;;;3.30;2.47;;;;;;;18.53;50.90;102388.00;5056459;28;20525;-37
2024/01/07 08:16:26;;;;;;;5.15;2.40;;;;;;;18.55;51.25;102385.81;5044336;28;20132;-36
2024/01/07 08:18:52;;;;;;;4.38;2.80;;;;;;;18.54;51.19;102386.88;5041286;28;20063;-37
2024/01/07 08:21:17;;;;;;;2.78;2.35;;;;;;;18.55;50.87;102392.16;5041995;28;20024;-36
2024/01/07 08:23:42;;;;;;;3.03;2.72;;;;;;;18.57;51.13;102391.91;5042973;28;20024;-36
2024/01/07 08:26:08;;;;;;;2.90;2.50;;;;;;;18.57;50.89;102394.66;5042568;28;20037;-37
2024/01/07 08:28:33;;;;;;;2.72;2.45;;;;;;;18.55;50.96;102394.91;5042026;28;20025;-36
2024/01/07 08:30:59;;;;;;;2.70;2.35;;;;;;;18.55;50.77;102405.88;5041786;28;20035;-36
2024/01/07 08:33:24;;;;;;;4.93;2.72;;;;;;;18.53;50.69;102410.78;5058413;28;20035;-36
2024/01/07 08:35:50;;;;;;;3.53;2.70;;;;;;;18.52;50.91;102419.25;5042542;28;20033;-37
2024/01/07 08:38:15;;;;;;;3.92;2.47;;;;;;;18.50;50.56;102419.50;5041359;28;20108;-36
2024/01/07 08:40:41;;;;;;;2.95;2.40;;;;;;;18.49;50.50;102420.59;5041381;28;20083;-36
2024/01/07 08:43:06;;;;;;;3.53;2.28;;;;;;;18.48;50.55;102424.41;5041103;28;20072;-36
2024/01/07 08:45:31;;;;;;;3.05;2.40;;;;;;;18.47;50.49;102427.38;5040791;28;20120;-36
2024/01/07 08:47:57;;;;;;;3.00;2.50;;;;;;;18.47;50.69;102430.13;5040959;28;20032;-37
2024/01/07 08:50:22;;;;;;;2.45;2.20;;;;;;;18.47;50.55;102447.44;5042817;28;20029;-36
2024/01/07 08:52:47;;;;;;;3.15;2.45;;;;;;;18.49;50.57;102444.44;5039194;28;20116;-36
2024/01/07 08:55:13;;;;;;;2.97;2.40;;;;;;;18.48;50.88;102443.63;5042725;28;20930;-36
2024/01/07 08:57:38;;;;;;;3.50;2.38;;;;;;;18.51;50.84;102436.81;5041184;28;20344;-36
2024/01/07 09:00:07;;;;;;;3.40;2.50;;;;;;;18.51;50.72;102445.88;5041380;28;20385;-36
2024/01/07 09:02:32;;;;;;;3.15;2.50;;;;;;;18.50;50.81;102441.44;5040400;28;20590;-36
2024/01/07 09:04:59;;;;;;;2.65;2.22;;;;;;;18.53;50.52;102442.91;5038753;28;20036;-36
2024/01/07 09:07:24;;;;;;;2.70;2.40;;;;;;;18.54;50.53;102448.16;5039926;28;20025;-36
2024/01/07 09:09:49;;;;;;;3.85;2.28;;;;;;;18.55;50.48;102449.81;5049363;28;20107;-36
2024/01/07 09:12:15;;;;;;;3.03;2.58;;;;;;;18.56;50.63;102456.97;5040436;28;20074;-36
2024/01/07 09:14:40;;;;;;;2.70;2.28;;;;;;;18.58;50.58;102459.47;5040497;28;20031;-37
2024/01/07 09:17:06;;;;;;;2.83;2.40;;;;;;;18.60;50.45;102468.28;5040017;28;20873;-36
2024/01/07 09:19:31;;;;;;;2.72;2.38;;;;;;;18.60;50.10;102466.41;5042219;28;20025;-36
2024/01/07 09:21:57;;;;;;;3.83;2.40;;;;;;;18.63;50.31;102470.56;5040729;28;20104;-37
2024/01/07 09:24:22;;;;;;;2.75;2.40;;;;;;;18.66;50.03;102466.50;5042261;28;20488;-36
2024/01/07 09:26:47;;;;;;;4.47;2.60;;;;;;;18.68;50.12;102476.16;5039975;28;20137;-36
2024/01/07 09:29:13;;;;;;;2.53;2.30;;;;;;;18.72;49.89;102480.13;5037351;28;20068;-37
2024/01/07 09:31:39;;;;;;;2.80;2.50;;;;;;;18.74;49.68;102480.69;5040768;28;20071;-37
2024/01/07 09:34:06;;;;;;;2.97;2.60;;;;;;;18.75;49.63;102485.13;5041742;28;20527;-37
2024/01/07 09:36:32;;;;;;;3.33;2.55;;;;;;;18.77;49.66;102504.09;5039551;28;20035;-37
2024/01/07 09:38:57;;;;;;;2.40;2.20;;;;;;;18.79;49.84;102503.88;5039291;28;20021;-36
2024/01/07 09:41:23;;;;;;;2.72;2.30;;;;;;;18.79;49.92;102503.88;5041716;28;20075;-36
2024/01/07 09:43:50;;;;;;;2.58;2.38;;;;;;;18.78;49.83;102511.25;5040270;28;20052;-36
2024/01/07 09:46:15;;;;;;;3.28;2.00;;;;;;;18.77;50.01;102521.41;5041607;28;20135;-36
2024/01/07 09:48:42;;;;;;;2.88;2.42;;;;;;;18.76;49.65;102519.75;5040183;28;20025;-35
2024/01/07 09:51:09;;;;;;;3.60;2.60;;;;;;;18.76;49.47;102522.50;5039895;28;20025;-36
2024/01/07 09:53:35;;;;;;;4.53;2.83;;;;;;;18.75;48.99;102534.56;5041268;28;20040;-37
2024/01/07 09:56:16;;;;;;;2.55;2.35;;;;;;;18.75;48.97;102537.28;5055715;28;20055;-37
2024/01/07 09:58:42;;;;;;;3.28;2.60;;;;;;;18.73;48.82;102525.72;5038604;28;20040;-37
2024/01/07 10:01:08;;;;;;;2.90;2.40;;;;;;;18.75;49.01;102530.97;5039559;28;20394;-36
2024/01/07 10:03:33;;;;;;;3.28;2.60;;;;;;;18.73;49.04;102539.44;5074299;28;20045;-36
2024/01/07 10:05:59;;;;;;;2.53;2.30;;;;;;;18.74;49.26;102540.28;5040918;28;20158;-36
2024/01/07 10:08:24;;;;;;;3.42;2.50;;;;;;;18.73;49.07;102550.44;5040151;28;20027;-36
2024/01/07 10:10:50;;;;;;;3.25;2.60;;;;;;;18.72;49.28;102532.31;5038096;28;20313;-36
2024/01/07 10:13:15;;;;;;;3.50;2.80;;;;;;;18.69;49.30;102549.25;5040818;28;20025;-36
2024/01/07 10:15:40;;;;;;;3.10;2.38;;;;;;;18.68;49.19;102541.25;5038252;28;20041;-37
2024/01/07 10:18:07;;;;;;;2.67;2.42;;;;;;;18.65;49.04;102528.84;5056235;28;20355;-36
2024/01/07 10:20:36;;;;;;;3.88;2.50;;;;;;;18.65;48.93;102544.47;5038255;28;20108;-36
2024/01/07 10:23:04;;;;;;;3.15;2.58;;;;;;;18.64;48.74;102549.13;5041578;28;20461;-36
2024/01/07 10:25:33;;;;;;;2.85;2.50;;;;;;;18.63;48.82;102561.19;5042159;28;20090;-36
2024/01/07 10:28:02;;;;;;;3.20;2.60;;;;;;;18.60;48.76;102550.66;5044045;28;20036;-36
2024/01/07 10:30:28;;;;;;;3.25;2.65;;;;;;;18.59;48.75;102560.00;5042831;28;20099;-36
2024/01/07 10:33:00;;;;;;;3.08;2.30;;;;;;;18.56;48.73;102566.78;5045001;28;20115;-37
2024/01/07 10:35:33;;;;;;;3.72;2.42;;;;;;;18.54;48.63;102568.97;5043037;28;20021;-36
2024/01/07 10:37:59;;;;;;;2.67;2.30;;;;;;;18.52;48.85;102573.03;5046614;28;20033;-36
2024/01/07 10:40:27;;;;;;;3.42;2.53;;;;;;;18.50;48.79;102572.41;5043451;28;20237;-36
2024/01/07 10:42:52;;;;;;;2.92;2.38;;;;;;;18.50;48.73;102572.41;5044362;28;20037;-36
2024/01/07 10:45:18;;;;;;;2.67;2.40;;;;;;;18.50;48.93;102569.66;5045526;28;20447;-37
2024/01/07 10:47:49;;;;;;;2.63;2.35;;;;;;;18.50;48.17;102584.22;5060742;28;20029;-35
2024/01/07 10:50:15;;;;;;;3.53;2.50;;;;;;;18.51;48.53;102576.84;5043278;28;20037;-37
2024/01/07 10:52:40;;;;;;;3.17;2.53;;;;;;;18.51;48.24;102587.81;5044747;28;20580;-38
2024/01/07 10:55:11;;;;;;;3.03;2.20;;;;;;;18.52;48.18;102576.59;5042053;28;20044;-37
2024/01/07 10:57:45;;;;;;;3.00;2.05;;;;;;;18.52;48.27;102573.03;5044301;28;20021;-36
2024/01/07 11:00:18;;;;;;;3.30;2.50;;;;;;;18.52;48.10;102571.09;5048091;28;20032;-37
2024/01/07 11:03:18;;;;;;;2.40;2.15;;;;;;;18.52;48.10;102582.09;5042892;28;20094;-36
2024/01/07 11:05:49;;;;;;;3.60;2.55;;;;;;;18.51;48.08;102569.41;5041956;28;20033;-36
2024/01/07 11:08:23;;;;;;;4.57;2.58;;;;;;;18.51;47.97;102574.09;5044308;28;20039;-37
2024/01/07 11:11:03;;;;;;;4.03;2.47;;;;;;;18.51;47.92;102572.16;5043451;28;20481;-36
2024/01/07 11:13:34;;;;;;;2.42;2.10;;;;;;;18.51;47.70;102574.09;5043719;28;20028;-37
2024/01/07 11:16:02;;;;;;;3.20;2.42;;;;;;;18.51;47.44;102580.41;5043197;28;20028;-36
2024/01/07 11:18:31;;;;;;;3.55;2.45;;;;;;;18.51;47.72;102579.59;5043177;28;20111;-36